createdAt,value
2022-10-22T00:01:24.698Z,78.55
2022-10-22T00:03:52.707Z,78.63
2022-10-22T00:06:21.009Z,78.75
2022-10-22T00:08:49.358Z,79.21
2022-10-22T00:11:20.078Z,79.26
2022-10-22T00:13:48.580Z,78.39
2022-10-22T00:16:18.309Z,79.00
2022-10-22T00:18:46.826Z,78.39
2022-10-22T00:21:14.856Z,79.23
2022-10-22T00:23:43.803Z,77.12
2022-10-22T00:26:14.323Z,76.89
2022-10-22T00:28:42.359Z,78.17
2022-10-22T00:31:10.848Z,78.84
2022-10-22T00:33:40.530Z,78.61
2022-10-22T00:36:09.815Z,78.09
2022-10-22T00:38:39.807Z,77.54
2022-10-22T00:41:09.552Z,76.76
2022-10-22T00:43:56.541Z,77.01
2022-10-22T00:46:24.614Z,77.05
2022-10-22T00:48:56.012Z,78.23
2022-10-22T00:51:29.918Z,78.49
2022-10-22T00:54:02.996Z,78.42
2022-10-22T00:56:31.064Z,78.51
2022-10-22T00:59:01.390Z,78.36
2022-10-22T01:01:32.689Z,77.96
2022-10-22T01:04:02.308Z,75.20
2022-10-22T01:06:33.214Z,75.44
2022-10-22T01:09:13.498Z,75.04
2022-10-22T01:11:54.031Z,73.58
2022-10-22T01:14:30.268Z,74.08
2022-10-22T01:17:06.047Z,76.18
2022-10-22T01:19:43.210Z,76.78
2022-10-22T01:22:18.068Z,77.09
2022-10-22T01:24:57.866Z,78.14
2022-10-22T01:27:36.292Z,79.26
2022-10-22T01:30:07.854Z,79.30
2022-10-22T01:32:40.771Z,78.77
2022-10-22T01:35:12.314Z,78.50
2022-10-22T01:37:46.794Z,78.38
2022-10-22T01:40:17.100Z,78.12
2022-10-22T01:42:56.248Z,78.35
2022-10-22T01:45:26.594Z,77.96
2022-10-22T01:48:02.669Z,78.94
2022-10-22T01:50:49.732Z,79.02
2022-10-22T01:53:31.539Z,79.22
2022-10-22T01:56:14.471Z,80.26
2022-10-22T01:58:50.297Z,80.84
2022-10-22T02:01:26.876Z,80.44
2022-10-22T02:04:02.969Z,80.87
2022-10-22T02:06:33.750Z,81.10
2022-10-22T02:09:03.929Z,80.54
2022-10-22T02:11:32.420Z,79.97
2022-10-22T02:14:04.804Z,79.43
2022-10-22T02:16:37.534Z,79.47
2022-10-22T02:19:11.772Z,79.22
2022-10-22T02:21:39.994Z,79.40
2022-10-22T02:24:08.976Z,79.57
2022-10-22T02:26:41.473Z,79.94
2022-10-22T02:29:15.207Z,80.25
2022-10-22T02:31:46.724Z,80.40
2022-10-22T02:34:19.353Z,80.55
2022-10-22T02:36:50.470Z,81.62
2022-10-22T02:39:21.221Z,81.25
2022-10-22T02:41:50.110Z,81.61
2022-10-22T02:44:22.602Z,82.02
2022-10-22T02:46:52.568Z,81.72
2022-10-22T02:49:20.654Z,81.18
2022-10-22T02:51:48.660Z,81.18
2022-10-22T02:54:16.683Z,82.49
2022-10-22T02:56:45.032Z,83.32
2022-10-22T02:59:13.038Z,84.19
2022-10-22T03:01:41.305Z,83.63
2022-10-22T03:04:10.710Z,82.56
2022-10-22T03:06:38.923Z,81.94
2022-10-22T03:09:06.976Z,81.64
2022-10-22T03:11:34.954Z,81.85
2022-10-22T03:14:02.948Z,81.54
2022-10-22T03:16:32.945Z,81.31
2022-10-22T03:19:02.038Z,81.67
2022-10-22T03:21:36.903Z,81.99
2022-10-22T03:24:10.530Z,81.69
2022-10-22T03:26:40.963Z,81.59
2022-10-22T03:29:11.247Z,81.51
2022-10-22T03:31:39.347Z,81.63
2022-10-22T03:34:07.419Z,82.13
2022-10-22T03:36:37.190Z,82.07
2022-10-22T03:39:06.234Z,81.96
2022-10-22T03:41:35.058Z,81.61
2022-10-22T03:44:05.735Z,81.23
2022-10-22T03:46:33.836Z,82.63
2022-10-22T03:49:01.846Z,84.85
2022-10-22T03:51:30.219Z,85.46
2022-10-22T03:53:59.805Z,85.45
2022-10-22T03:56:27.834Z,85.40
2022-10-22T03:58:58.319Z,85.50
2022-10-22T04:01:27.465Z,85.34
2022-10-22T04:03:55.955Z,85.54
2022-10-22T04:06:24.439Z,84.88
2022-10-22T04:08:52.557Z,86.18
2022-10-22T04:11:22.370Z,86.04
2022-10-22T04:13:50.533Z,85.70
2022-10-22T04:16:20.620Z,85.89
2022-10-22T04:18:50.676Z,85.56
2022-10-22T04:21:20.718Z,84.76
2022-10-22T04:23:50.284Z,85.13
2022-10-22T04:26:19.178Z,85.58
2022-10-22T04:28:49.902Z,85.98
2022-10-22T04:31:20.627Z,85.54
2022-10-22T04:33:49.157Z,84.80
2022-10-22T04:36:18.960Z,83.60
2022-10-22T04:38:48.798Z,83.00
2022-10-22T04:41:18.934Z,82.42
2022-10-22T04:43:48.731Z,83.11
2022-10-22T04:46:18.133Z,84.36
2022-10-22T04:48:46.970Z,85.17
2022-10-22T04:51:16.789Z,85.51
2022-10-22T04:53:45.873Z,85.46
2022-10-22T04:56:16.469Z,85.22
2022-10-22T04:58:45.905Z,84.94
2022-10-22T05:01:18.672Z,85.51
2022-10-22T05:03:47.990Z,86.21
2022-10-22T05:06:16.849Z,85.81
2022-10-22T05:08:45.133Z,86.04
2022-10-22T05:11:14.475Z,85.73
2022-10-22T05:13:42.683Z,86.57
2022-10-22T05:16:10.903Z,86.01
2022-10-22T05:18:42.036Z,86.11
2022-10-22T05:21:11.391Z,85.75
2022-10-22T05:23:40.013Z,85.91
2022-10-22T05:26:09.441Z,85.70
2022-10-22T05:28:38.327Z,86.06
2022-10-22T05:31:08.435Z,86.94
2022-10-22T05:33:36.711Z,86.57
2022-10-22T05:36:08.532Z,86.26
2022-10-22T05:38:37.173Z,85.73
2022-10-22T05:41:07.402Z,85.72
2022-10-22T05:43:35.913Z,85.84
2022-10-22T05:46:06.138Z,85.09
2022-10-22T05:48:34.769Z,83.60
2022-10-22T05:51:05.716Z,84.11
2022-10-22T05:53:36.458Z,83.96
2022-10-22T05:56:06.886Z,83.97
2022-10-22T05:58:35.384Z,84.35
2022-10-22T06:01:06.297Z,84.94
2022-10-22T06:03:34.499Z,85.05
2022-10-22T06:06:04.257Z,84.94
2022-10-22T06:08:32.726Z,85.37
2022-10-22T06:11:06.631Z,87.02
2022-10-22T06:13:34.668Z,87.47
2022-10-22T06:16:02.919Z,87.58
2022-10-22T06:18:31.221Z,87.09
2022-10-22T06:21:05.877Z,86.71
2022-10-22T06:23:33.970Z,86.86
2022-10-22T06:26:02.522Z,86.75
2022-10-22T06:28:32.363Z,85.53
2022-10-22T06:31:00.847Z,86.00
2022-10-22T06:33:29.817Z,85.96
2022-10-22T06:36:07.691Z,86.50
2022-10-22T06:38:36.211Z,86.07
2022-10-22T06:41:06.121Z,85.54
2022-10-22T06:43:35.656Z,85.25
2022-10-22T06:46:07.248Z,85.28
2022-10-22T06:48:36.090Z,84.72
2022-10-22T06:51:05.361Z,84.37
2022-10-22T06:53:33.854Z,85.65
2022-10-22T06:56:06.431Z,84.41
2022-10-22T06:58:36.478Z,84.42
2022-10-22T07:01:06.429Z,84.27
2022-10-22T07:03:34.637Z,83.58
2022-10-22T07:06:03.640Z,83.62
2022-10-22T07:08:34.780Z,82.76
2022-10-22T07:11:08.061Z,83.66
2022-10-22T07:13:41.586Z,84.47
2022-10-22T07:16:10.160Z,84.62
2022-10-22T07:18:41.656Z,83.88
2022-10-22T07:21:10.992Z,82.02
2022-10-22T07:23:45.428Z,81.62
2022-10-22T07:26:15.618Z,81.82
2022-10-22T07:28:48.156Z,80.54
2022-10-22T07:31:17.726Z,78.87
2022-10-22T07:33:46.079Z,80.25
2022-10-22T07:36:17.989Z,78.52
2022-10-22T07:38:46.346Z,79.67
2022-10-22T07:41:15.670Z,78.24
2022-10-22T07:43:43.895Z,77.02
2022-10-22T07:46:13.750Z,75.88
2022-10-22T07:48:41.902Z,75.86
2022-10-22T07:51:10.132Z,76.00
2022-10-22T07:53:38.257Z,74.92
2022-10-22T07:56:09.183Z,74.05
2022-10-22T07:58:37.480Z,73.75
2022-10-22T08:01:06.527Z,74.23
2022-10-22T08:03:36.601Z,73.34
2022-10-22T08:06:05.275Z,72.97
2022-10-22T08:08:33.589Z,71.58
2022-10-22T08:11:02.720Z,71.88
2022-10-22T08:13:31.694Z,72.37
2022-10-22T08:16:00.926Z,71.13
2022-10-22T08:18:30.437Z,69.77
2022-10-22T08:21:01.780Z,70.73
2022-10-22T08:23:30.796Z,70.20
2022-10-22T08:25:59.698Z,68.63
2022-10-22T08:28:28.847Z,70.02
2022-10-22T08:30:57.073Z,69.59
2022-10-22T08:33:25.176Z,68.37
2022-10-22T08:35:53.668Z,68.23
2022-10-22T08:38:23.417Z,68.30
2022-10-22T08:40:54.106Z,68.49
2022-10-22T08:43:39.412Z,67.23
2022-10-22T08:46:20.632Z,67.26
2022-10-22T08:48:51.034Z,68.19
2022-10-22T08:51:21.500Z,69.88
2022-10-22T08:54:11.718Z,68.35
2022-10-22T08:56:43.411Z,68.03
2022-10-22T08:59:16.023Z,67.45
2022-10-22T09:01:48.172Z,67.00
2022-10-22T09:04:25.563Z,68.91
2022-10-22T09:06:56.779Z,65.74
2022-10-22T09:09:29.178Z,67.12
2022-10-22T09:12:00.341Z,66.17
2022-10-22T09:14:29.961Z,68.60
2022-10-22T09:17:14.217Z,66.28
2022-10-22T09:19:50.335Z,67.23
2022-10-22T09:22:29.057Z,66.57
2022-10-22T09:25:01.066Z,66.22
2022-10-22T09:27:31.500Z,67.83
2022-10-22T09:29:59.872Z,67.23
2022-10-22T09:32:34.299Z,68.49
2022-10-22T09:35:04.429Z,67.68
2022-10-22T09:37:32.610Z,65.62
2022-10-22T09:40:06.746Z,66.39
2022-10-22T09:42:35.077Z,64.55
2022-10-22T09:45:03.085Z,64.50
2022-10-22T09:47:43.157Z,65.16
2022-10-22T09:50:28.776Z,64.66
2022-10-22T09:53:01.469Z,63.62
2022-10-22T09:55:31.369Z,64.45
2022-10-22T09:58:02.137Z,64.24
2022-10-22T10:00:31.513Z,66.46
2022-10-22T10:03:01.469Z,64.85
2022-10-22T10:05:31.792Z,66.67
2022-10-22T10:08:03.653Z,66.67
2022-10-22T10:10:48.820Z,65.03
2022-10-22T10:13:42.848Z,63.15
2022-10-22T10:16:23.279Z,62.80
2022-10-22T10:19:11.862Z,65.29
2022-10-22T10:21:49.593Z,65.17
2022-10-22T10:24:27.749Z,62.62
2022-10-22T10:27:02.293Z,64.00
2022-10-22T10:29:47.313Z,63.83
2022-10-22T10:32:32.272Z,63.55
2022-10-22T10:35:12.551Z,63.54
2022-10-22T10:37:47.198Z,63.94
2022-10-22T10:40:27.742Z,63.58
2022-10-22T10:43:01.443Z,63.29
2022-10-22T10:45:38.785Z,63.79
2022-10-22T10:48:38.095Z,63.86
2022-10-22T10:51:17.631Z,63.49
2022-10-22T10:53:59.196Z,64.80
2022-10-22T10:56:39.312Z,65.28
2022-10-22T10:59:21.016Z,64.34
2022-10-22T11:02:04.010Z,63.66
2022-10-22T11:04:55.625Z,66.96
2022-10-22T11:07:45.269Z,65.04
2022-10-22T11:10:25.833Z,64.59
2022-10-22T11:12:58.720Z,65.22
2022-10-22T11:15:30.912Z,64.13
2022-10-22T11:18:11.507Z,65.54
2022-10-22T11:20:50.008Z,65.11
2022-10-22T11:23:24.611Z,64.39
2022-10-22T11:25:53.032Z,65.60
2022-10-22T11:28:26.623Z,63.74
2022-10-22T11:31:01.325Z,66.08
2022-10-22T11:33:39.085Z,64.94
2022-10-22T11:36:09.497Z,63.39
2022-10-22T11:38:38.961Z,63.31
2022-10-22T11:41:10.979Z,63.67
2022-10-22T11:43:57.253Z,65.23
2022-10-22T11:46:39.545Z,65.96
2022-10-22T11:49:20.424Z,66.68
2022-10-22T11:51:51.386Z,66.02
2022-10-22T11:54:42.624Z,67.05
2022-10-22T11:57:24.434Z,65.47
2022-10-22T11:59:57.286Z,68.04
2022-10-22T12:02:39.785Z,66.38
2022-10-22T12:05:35.712Z,66.70
2022-10-22T12:08:15.878Z,65.20
2022-10-22T12:11:07.154Z,64.19
2022-10-22T12:13:54.832Z,64.90
2022-10-22T12:16:32.466Z,64.09
2022-10-22T12:19:18.072Z,65.17
2022-10-22T12:21:53.656Z,64.54
2022-10-22T12:24:23.935Z,63.41
2022-10-22T12:26:52.825Z,66.59
2022-10-22T12:29:25.795Z,67.13
2022-10-22T12:31:54.035Z,68.99
2022-10-22T12:34:25.996Z,69.09
2022-10-22T12:36:55.239Z,68.46
2022-10-22T12:39:27.584Z,69.14
2022-10-22T12:41:56.862Z,68.74
2022-10-22T12:44:25.152Z,69.19
2022-10-22T12:46:56.141Z,68.65
2022-10-22T12:49:34.047Z,70.09
2022-10-22T12:52:04.892Z,68.82
2022-10-22T12:54:35.165Z,69.08
2022-10-22T12:57:03.649Z,68.78
2022-10-22T12:59:36.310Z,69.22
2022-10-22T13:02:16.290Z,68.40
2022-10-22T13:05:15.044Z,69.42
2022-10-22T13:07:45.510Z,69.15
2022-10-22T13:10:19.735Z,68.48
2022-10-22T13:12:52.023Z,70.37
2022-10-22T13:15:22.798Z,70.48
2022-10-22T13:17:50.959Z,71.43
2022-10-22T13:20:23.920Z,70.52
2022-10-22T13:23:00.267Z,71.04
2022-10-22T13:25:32.328Z,70.76
2022-10-22T13:28:02.498Z,70.27
2022-10-22T13:30:32.707Z,70.37
2022-10-22T13:33:03.256Z,70.03
2022-10-22T13:35:35.109Z,71.23
2022-10-22T13:38:03.408Z,71.50
2022-10-22T13:40:31.476Z,71.64
2022-10-22T13:42:59.517Z,70.83
2022-10-22T13:45:28.047Z,70.90
2022-10-22T13:47:57.146Z,70.53
2022-10-22T13:50:25.247Z,70.50
2022-10-22T13:52:59.875Z,70.63
2022-10-22T13:55:30.088Z,70.62
2022-10-22T13:58:01.629Z,71.42
2022-10-22T14:00:30.299Z,71.19
2022-10-22T14:03:00.704Z,71.43
2022-10-22T14:05:30.570Z,71.38
2022-10-22T14:08:00.854Z,71.67
2022-10-22T14:10:29.316Z,71.85
2022-10-22T14:12:58.519Z,72.38
2022-10-22T14:15:29.885Z,73.47
2022-10-22T14:17:59.984Z,73.71
2022-10-22T14:20:30.323Z,74.24
2022-10-22T14:23:07.005Z,74.27
2022-10-22T14:25:35.462Z,74.97
2022-10-22T14:28:03.570Z,75.41
2022-10-22T14:30:34.217Z,75.15
2022-10-22T14:33:02.425Z,75.49
2022-10-22T14:35:30.709Z,75.60
2022-10-22T14:38:00.382Z,75.44
2022-10-22T14:40:30.403Z,75.74
2022-10-22T14:42:58.520Z,75.85
2022-10-22T14:45:28.374Z,76.42
2022-10-22T14:47:57.325Z,76.77
2022-10-22T14:50:26.340Z,76.78
2022-10-22T14:52:57.274Z,77.43
2022-10-22T14:55:27.576Z,77.93
2022-10-22T14:57:58.074Z,78.38
2022-10-22T15:00:26.239Z,78.33
2022-10-22T15:02:55.828Z,78.83
2022-10-22T15:05:24.376Z,79.59
2022-10-22T15:07:52.522Z,80.40
2022-10-22T15:10:20.620Z,80.07
2022-10-22T15:12:50.507Z,79.90
2022-10-22T15:15:21.954Z,80.39
2022-10-22T15:17:53.779Z,80.22
2022-10-22T15:20:23.098Z,81.02
2022-10-22T15:22:52.026Z,81.27
2022-10-22T15:25:20.786Z,82.18
2022-10-22T15:27:54.889Z,82.13
2022-10-22T15:30:28.015Z,82.37
2022-10-22T15:32:56.271Z,82.77
2022-10-22T15:35:26.733Z,82.86
2022-10-22T15:37:54.777Z,83.34
2022-10-22T15:40:22.988Z,82.78
2022-10-22T15:42:52.872Z,83.42
2022-10-22T15:45:21.348Z,83.24
2022-10-22T15:47:50.479Z,83.82
2022-10-22T15:50:19.202Z,85.12
2022-10-22T15:52:47.287Z,85.55
2022-10-22T15:55:15.669Z,85.69
2022-10-22T15:57:44.064Z,86.01
2022-10-22T16:00:16.631Z,86.36
2022-10-22T16:02:44.672Z,87.10
2022-10-22T16:05:13.044Z,87.04
2022-10-22T16:07:41.354Z,86.22
2022-10-22T16:10:12.902Z,86.35
2022-10-22T16:12:42.641Z,85.32
2022-10-22T16:15:13.334Z,84.57
2022-10-22T16:17:41.509Z,85.55
2022-10-22T16:20:10.526Z,85.59
2022-10-22T16:22:39.125Z,85.13
2022-10-22T16:25:08.350Z,84.67
2022-10-22T16:27:36.414Z,85.82
2022-10-22T16:30:05.169Z,86.73
2022-10-22T16:32:34.990Z,86.56
2022-10-22T16:35:03.083Z,86.21
2022-10-22T16:37:31.370Z,85.89
2022-10-22T16:40:00.985Z,86.64
2022-10-22T16:42:31.688Z,85.57
2022-10-22T16:45:00.252Z,85.00
2022-10-22T16:47:28.392Z,84.81
2022-10-22T16:50:01.388Z,85.29
2022-10-22T16:52:29.721Z,85.38
2022-10-22T16:55:03.184Z,85.23
2022-10-22T16:57:34.021Z,85.65
2022-10-22T17:00:02.888Z,85.78
2022-10-22T17:02:31.495Z,86.00
2022-10-22T17:05:01.662Z,85.84
2022-10-22T17:07:30.106Z,85.87
2022-10-22T17:09:58.140Z,85.99
2022-10-22T17:12:26.668Z,85.43
2022-10-22T17:14:54.995Z,85.73
2022-10-22T17:17:23.736Z,85.52
2022-10-22T17:19:51.849Z,85.34
2022-10-22T17:22:21.689Z,85.10
2022-10-22T17:25:09.491Z,85.25
2022-10-22T17:27:38.243Z,85.47
2022-10-22T17:30:08.286Z,85.58
2022-10-22T17:32:38.197Z,85.35
2022-10-22T17:35:08.329Z,85.46
2022-10-22T17:37:38.432Z,85.32
2022-10-22T17:40:07.960Z,85.63
2022-10-22T17:42:36.081Z,85.66
2022-10-22T17:45:04.862Z,85.35
2022-10-22T17:47:33.283Z,85.53
2022-10-22T17:50:01.314Z,85.63
2022-10-22T17:52:29.395Z,85.82
2022-10-22T17:54:58.849Z,85.42
2022-10-22T17:57:26.856Z,85.59
2022-10-22T17:59:55.067Z,85.67
2022-10-22T18:02:23.714Z,85.67
2022-10-22T18:04:52.964Z,85.55
2022-10-22T18:07:21.714Z,85.33
2022-10-22T18:09:51.768Z,85.69
2022-10-22T18:12:21.882Z,85.70
2022-10-22T18:14:50.326Z,85.74
2022-10-22T18:17:18.450Z,86.94
2022-10-22T18:19:49.505Z,86.41
2022-10-22T18:22:17.901Z,86.11
2022-10-22T18:24:46.392Z,85.91
2022-10-22T18:27:14.874Z,87.14
2022-10-22T18:29:44.288Z,86.42
2022-10-22T18:32:14.468Z,86.52
2022-10-22T18:34:42.766Z,86.66
2022-10-22T18:37:11.171Z,88.13
2022-10-22T18:39:39.784Z,87.25
2022-10-22T18:42:08.059Z,86.79
2022-10-22T18:44:36.450Z,86.62
2022-10-22T18:47:06.405Z,85.85
2022-10-22T18:49:34.523Z,87.97
2022-10-22T18:52:03.211Z,88.96
2022-10-22T18:54:31.506Z,88.04
2022-10-22T18:57:02.861Z,87.08
2022-10-22T18:59:32.009Z,86.21
2022-10-22T19:02:00.515Z,86.58
2022-10-22T19:04:36.713Z,86.88
2022-10-22T19:07:05.110Z,87.04
2022-10-22T19:09:33.415Z,87.00
2022-10-22T19:12:02.183Z,87.70
2022-10-22T19:14:30.617Z,88.40
2022-10-22T19:16:58.850Z,88.45
2022-10-22T19:19:30.392Z,88.47
2022-10-22T19:21:59.586Z,88.41
2022-10-22T19:24:27.952Z,88.87
2022-10-22T19:26:56.078Z,91.25
2022-10-22T19:29:24.375Z,91.04
2022-10-22T19:31:52.464Z,91.10
2022-10-22T19:34:23.018Z,89.97
2022-10-22T19:36:52.779Z,89.54
2022-10-22T19:39:23.613Z,90.06
2022-10-22T19:41:51.675Z,91.32
2022-10-22T19:44:19.877Z,91.14
2022-10-22T19:46:48.001Z,91.86
2022-10-22T19:49:20.335Z,92.77
2022-10-22T19:51:50.222Z,92.81
2022-10-22T19:54:20.653Z,92.61
2022-10-22T19:56:49.506Z,92.28
2022-10-22T19:59:20.836Z,91.96
2022-10-22T20:01:48.825Z,91.48
2022-10-22T20:04:18.624Z,90.58
2022-10-22T20:06:47.226Z,90.53
2022-10-22T20:09:15.498Z,90.53
2022-10-22T20:11:45.653Z,91.07
2022-10-22T20:14:14.762Z,91.75
2022-10-22T20:16:44.279Z,92.59
2022-10-22T20:19:16.205Z,93.04
2022-10-22T20:21:45.172Z,93.03
2022-10-22T20:24:14.073Z,93.31
2022-10-22T20:26:42.464Z,92.85
2022-10-22T20:29:14.823Z,92.69
2022-10-22T20:31:43.876Z,92.23
2022-10-22T20:34:12.116Z,91.14
2022-10-22T20:36:40.805Z,90.57
2022-10-22T20:39:12.364Z,90.54
2022-10-22T20:41:41.097Z,91.96
2022-10-22T20:44:14.190Z,92.35
2022-10-22T20:46:43.625Z,92.32
2022-10-22T20:49:16.629Z,92.31
2022-10-22T20:51:46.088Z,92.09
2022-10-22T20:54:15.708Z,91.31
2022-10-22T20:56:44.551Z,90.44
2022-10-22T20:59:14.741Z,89.88
2022-10-22T21:01:45.664Z,89.56
2022-10-22T21:04:14.042Z,89.28
2022-10-22T21:06:43.193Z,90.38
2022-10-22T21:09:13.689Z,90.11
2022-10-22T21:11:44.233Z,90.32
2022-10-22T21:14:17.912Z,91.64
2022-10-22T21:16:49.463Z,92.23
2022-10-22T21:19:22.586Z,92.50
2022-10-22T21:21:50.881Z,91.64
2022-10-22T21:24:19.170Z,91.72
2022-10-22T21:26:47.209Z,91.01
2022-10-22T21:29:16.939Z,91.00
2022-10-22T21:31:45.404Z,91.93
2022-10-22T21:34:13.994Z,91.68
2022-10-22T21:36:42.699Z,91.03
2022-10-22T21:39:10.863Z,91.06
2022-10-22T21:41:39.344Z,91.70
2022-10-22T21:44:07.833Z,91.02
2022-10-22T21:46:39.721Z,91.47
2022-10-22T21:49:07.735Z,92.85
2022-10-22T21:51:38.330Z,93.05
2022-10-22T21:54:06.982Z,93.37
2022-10-22T21:56:37.132Z,92.92
2022-10-22T21:59:06.924Z,91.91
2022-10-22T22:01:36.169Z,91.66
2022-10-22T22:04:07.125Z,92.52
2022-10-22T22:06:37.212Z,93.40
2022-10-22T22:09:06.074Z,93.51
2022-10-22T22:11:34.914Z,93.73
2022-10-22T22:14:04.251Z,93.76
2022-10-22T22:16:34.065Z,93.49
2022-10-22T22:21:40.873Z,93.12
2022-10-22T22:24:10.543Z,86.85
2022-10-22T22:26:38.587Z,87.24
2022-10-22T22:29:06.973Z,89.06
2022-10-22T22:31:36.081Z,89.68
2022-10-22T22:34:07.017Z,89.91
2022-10-22T22:36:37.896Z,90.40
2022-10-22T22:39:10.466Z,90.39
2022-10-22T22:41:38.464Z,90.77
2022-10-22T22:44:06.721Z,90.56
2022-10-22T22:46:34.822Z,90.36
2022-10-22T22:49:03.014Z,90.42
2022-10-22T22:51:31.056Z,90.68
2022-10-22T22:54:00.199Z,90.47
2022-10-22T22:56:32.097Z,90.51
2022-10-22T22:59:00.402Z,91.60
2022-10-22T23:01:30.215Z,91.26
2022-10-22T23:04:00.120Z,91.96
2022-10-22T23:06:29.835Z,91.57
2022-10-22T23:09:00.073Z,91.28
2022-10-22T23:11:30.281Z,90.55
2022-10-22T23:14:00.475Z,89.90
2022-10-22T23:16:33.784Z,89.50
2022-10-22T23:19:02.624Z,89.19
2022-10-22T23:21:32.727Z,89.79
2022-10-22T23:24:03.275Z,90.05
2022-10-22T23:26:34.920Z,90.02
2022-10-22T23:29:03.450Z,89.93
2022-10-22T23:31:31.509Z,89.87
2022-10-22T23:33:59.645Z,90.15
2022-10-22T23:36:28.371Z,90.38
2022-10-22T23:38:56.774Z,90.71
2022-10-22T23:41:25.264Z,90.52
2022-10-22T23:43:55.000Z,91.31
2022-10-22T23:46:23.125Z,91.36
2022-10-22T23:48:53.720Z,90.21
2022-10-22T23:51:22.780Z,90.33
2022-10-22T23:53:56.479Z,91.65
2022-10-22T23:56:24.988Z,91.98
2022-10-22T23:58:55.282Z,91.84
